createdAt,value
2016-09-03T00:00:01.967Z,997.3
2016-09-03T00:00:26.103Z,997.3
2016-09-03T00:00:50.235Z,997.3
2016-09-03T00:01:14.395Z,997.3
2016-09-03T00:01:38.540Z,997.3
2016-09-03T00:02:02.671Z,997.3
2016-09-03T00:02:26.799Z,997.3
2016-09-03T00:02:50.941Z,997.3
2016-09-03T00:03:15.082Z,997.3
2016-09-03T00:03:39.219Z,997.3
2016-09-03T00:04:03.350Z,997.3
2016-09-03T00:04:27.475Z,997.3
2016-09-03T00:04:51.606Z,997.3
2016-09-03T00:05:15.720Z,997.3
2016-09-03T00:05:39.835Z,997.3
2016-09-03T00:06:03.971Z,997.3
2016-09-03T00:06:28.114Z,997.3
2016-09-03T00:06:52.251Z,997.3
2016-09-03T00:07:16.389Z,997.3
2016-09-03T00:07:40.526Z,997.3
2016-09-03T00:08:04.669Z,997.3
2016-09-03T00:08:28.802Z,997.3
2016-09-03T00:08:52.923Z,997.3
2016-09-03T00:09:17.049Z,997.3
2016-09-03T00:09:41.179Z,997.3
2016-09-03T00:10:05.302Z,997.3
2016-09-03T00:10:29.422Z,997.3
2016-09-03T00:10:53.581Z,997.2
2016-09-03T00:11:17.724Z,997.3
2016-09-03T00:11:41.847Z,997.2
2016-09-03T00:12:05.970Z,997.3
2016-09-03T00:12:30.100Z,997.2
2016-09-03T00:12:54.230Z,997.2
2016-09-03T00:13:18.358Z,997.2
2016-09-03T00:13:42.474Z,997.3
2016-09-03T00:14:06.633Z,997.2
2016-09-03T00:14:30.765Z,997.2
2016-09-03T00:14:54.884Z,997.2
2016-09-03T00:15:19.025Z,997.2
2016-09-03T00:15:43.160Z,997.2
2016-09-03T00:16:07.291Z,997.2
2016-09-03T00:16:31.447Z,997.2
2016-09-03T00:16:55.601Z,997.2
2016-09-03T00:17:19.748Z,997.2
2016-09-03T00:17:43.874Z,997.2
2016-09-03T00:18:08.001Z,997.2
2016-09-03T00:18:32.162Z,997.2
2016-09-03T00:18:56.273Z,997.2
2016-09-03T00:19:20.437Z,997.2
2016-09-03T00:19:44.568Z,997.2
2016-09-03T00:20:08.733Z,997.2
2016-09-03T00:20:32.862Z,997.2
2016-09-03T00:20:56.996Z,997.2
2016-09-03T00:21:21.134Z,997.2
2016-09-03T00:21:45.289Z,997.2
2016-09-03T00:22:09.409Z,997.3
2016-09-03T00:22:33.521Z,997.2
2016-09-03T00:22:57.643Z,997.3
2016-09-03T00:23:21.795Z,997.2
2016-09-03T00:23:45.920Z,997.2
2016-09-03T00:24:10.062Z,997.2
2016-09-03T00:24:34.179Z,997.2
2016-09-03T00:24:58.329Z,997.2
2016-09-03T00:25:22.451Z,997.2
2016-09-03T00:25:46.570Z,997.2
2016-09-03T00:26:10.737Z,997.2
2016-09-03T00:26:34.870Z,997.2
2016-09-03T00:26:58.981Z,997.2
2016-09-03T00:27:23.105Z,997.2
2016-09-03T00:27:47.242Z,997.1
2016-09-03T00:28:11.410Z,997.2
2016-09-03T00:28:35.534Z,997.2
2016-09-03T00:28:59.680Z,997.1
2016-09-03T00:29:23.800Z,997.2
2016-09-03T00:29:47.928Z,997.1
2016-09-03T00:30:12.036Z,997.2
2016-09-03T00:30:36.151Z,997.2
2016-09-03T00:31:00.277Z,997.2
2016-09-03T00:31:24.438Z,997.1
2016-09-03T00:31:48.559Z,997.1
2016-09-03T00:32:12.676Z,997.2
2016-09-03T00:32:36.824Z,997.2
2016-09-03T00:33:00.976Z,997.2
2016-09-03T00:33:25.093Z,997.2
2016-09-03T00:33:49.242Z,997.1
2016-09-03T00:34:13.389Z,997.1
2016-09-03T00:34:37.543Z,997.1
2016-09-03T00:35:01.678Z,997.1
2016-09-03T00:35:25.834Z,997.1
2016-09-03T00:35:49.983Z,997.1
2016-09-03T00:36:14.127Z,997.1
2016-09-03T00:36:38.249Z,997.1
2016-09-03T00:37:02.403Z,997.1
2016-09-03T00:37:26.539Z,997.1
2016-09-03T00:37:50.682Z,997.1
2016-09-03T00:38:14.802Z,997.1
2016-09-03T00:38:38.936Z,997.1
2016-09-03T00:39:03.067Z,997.1
2016-09-03T00:39:27.179Z,997.1
2016-09-03T00:39:51.306Z,997.1
2016-09-03T00:40:15.484Z,997.1
2016-09-03T00:40:39.624Z,997.1
2016-09-03T00:41:03.743Z,997.1
2016-09-03T00:41:27.888Z,997.1
2016-09-03T00:41:52.015Z,997.1
2016-09-03T00:42:16.185Z,997.1
2016-09-03T00:42:40.322Z,997.1
2016-09-03T00:43:04.495Z,997.1
2016-09-03T00:43:28.650Z,997.1
2016-09-03T00:43:52.817Z,997.1
2016-09-03T00:44:16.946Z,997.1
2016-09-03T00:44:41.096Z,997.1
2016-09-03T00:45:05.218Z,997.1
2016-09-03T00:45:29.330Z,997.1
2016-09-03T00:45:53.469Z,997.1
2016-09-03T00:46:17.593Z,997.1
2016-09-03T00:46:41.729Z,997.1
2016-09-03T00:47:05.843Z,997.1
2016-09-03T00:47:29.990Z,997.1
2016-09-03T00:47:54.134Z,997.1
2016-09-03T00:48:18.272Z,997.1
2016-09-03T00:48:42.388Z,997.1
2016-09-03T00:49:06.505Z,997.1
2016-09-03T00:49:30.623Z,997.1
2016-09-03T00:49:54.771Z,997.1
2016-09-03T00:50:18.890Z,997.1
2016-09-03T00:50:42.979Z,997.1
2016-09-03T00:51:07.106Z,997.1
2016-09-03T00:51:31.246Z,997.1
2016-09-03T00:51:55.360Z,997.1
2016-09-03T00:52:19.502Z,997.1
2016-09-03T00:52:43.631Z,997.1
2016-09-03T00:53:07.773Z,997.1
2016-09-03T00:53:31.896Z,997.1
2016-09-03T00:53:56.048Z,997
2016-09-03T00:54:20.180Z,997.1
2016-09-03T00:54:44.326Z,997
2016-09-03T00:55:08.458Z,997
2016-09-03T00:55:32.594Z,997
2016-09-03T00:55:56.730Z,997.1
2016-09-03T00:56:20.877Z,997
2016-09-03T00:56:45.011Z,997
2016-09-03T00:57:09.125Z,997
2016-09-03T00:57:33.249Z,997.1
2016-09-03T00:57:57.368Z,997
2016-09-03T00:58:21.481Z,997.1
2016-09-03T00:58:45.604Z,997
2016-09-03T00:59:09.722Z,997.1
2016-09-03T00:59:33.864Z,997
2016-09-03T00:59:57.990Z,997.1
2016-09-03T01:00:22.118Z,997.1
2016-09-03T01:00:46.271Z,997.1
2016-09-03T01:01:10.395Z,997.1
2016-09-03T01:01:34.518Z,997.1
2016-09-03T01:01:58.639Z,997.1
2016-09-03T01:02:22.761Z,997.1
2016-09-03T01:02:46.890Z,997
2016-09-03T01:03:11.034Z,997
2016-09-03T01:03:35.137Z,997
2016-09-03T01:03:59.288Z,997
2016-09-03T01:04:23.410Z,997
2016-09-03T01:04:47.544Z,997
2016-09-03T01:05:11.698Z,997
2016-09-03T01:05:35.840Z,997
2016-09-03T01:05:59.973Z,997
2016-09-03T01:06:24.118Z,997
2016-09-03T01:06:48.261Z,997
2016-09-03T01:07:12.423Z,997
2016-09-03T01:07:36.554Z,996.9
2016-09-03T01:08:00.676Z,997
2016-09-03T01:08:24.814Z,996.9
2016-09-03T01:08:48.967Z,996.9
2016-09-03T01:09:13.086Z,996.9
2016-09-03T01:09:37.222Z,996.9
2016-09-03T01:10:01.369Z,996.9
2016-09-03T01:10:25.501Z,996.9
2016-09-03T01:10:49.598Z,997
2016-09-03T01:11:13.724Z,996.9
2016-09-03T01:11:37.861Z,996.9
2016-09-03T01:12:02.004Z,996.9
2016-09-03T01:12:26.147Z,996.9
2016-09-03T01:12:50.252Z,996.9
2016-09-03T01:13:14.401Z,996.9
2016-09-03T01:13:38.567Z,996.9
2016-09-03T01:14:02.689Z,996.9
2016-09-03T01:14:26.818Z,996.9
2016-09-03T01:14:50.968Z,996.9
2016-09-03T01:15:15.110Z,996.9
2016-09-03T01:15:39.233Z,996.9
2016-09-03T01:16:03.365Z,996.9
2016-09-03T01:16:27.468Z,996.9
2016-09-03T01:16:51.590Z,996.9
2016-09-03T01:17:15.708Z,996.9
2016-09-03T01:17:39.839Z,996.9
2016-09-03T01:18:03.960Z,996.9
2016-09-03T01:18:28.120Z,996.9
2016-09-03T01:18:52.241Z,996.9
2016-09-03T01:19:16.372Z,996.9
2016-09-03T01:19:40.544Z,996.9
2016-09-03T01:20:04.645Z,997
2016-09-03T01:20:28.758Z,997
2016-09-03T01:20:52.871Z,996.9
2016-09-03T01:21:17.023Z,997
2016-09-03T01:21:41.145Z,997
2016-09-03T01:22:05.266Z,996.9
2016-09-03T01:22:29.377Z,996.9
2016-09-03T01:22:53.514Z,996.9
2016-09-03T01:23:17.634Z,996.9
2016-09-03T01:23:41.750Z,996.9
2016-09-03T01:24:05.898Z,996.9
2016-09-03T01:24:30.037Z,996.9
2016-09-03T01:24:54.155Z,997
2016-09-03T01:25:18.299Z,997
2016-09-03T01:25:42.444Z,997
2016-09-03T01:26:06.617Z,996.9
2016-09-03T01:26:30.738Z,996.9
2016-09-03T01:26:54.859Z,996.9
2016-09-03T01:27:18.974Z,996.9
2016-09-03T01:27:43.094Z,996.9
2016-09-03T01:28:07.200Z,996.9
2016-09-03T01:28:31.312Z,996.9
2016-09-03T01:28:55.413Z,996.9
2016-09-03T01:29:19.542Z,996.9
2016-09-03T01:29:43.647Z,996.9
2016-09-03T01:30:07.773Z,996.9
2016-09-03T01:30:31.887Z,996.9
2016-09-03T01:30:56.026Z,996.9
2016-09-03T01:31:20.152Z,996.8
2016-09-03T01:31:44.281Z,996.9
2016-09-03T01:32:08.395Z,996.9
2016-09-03T01:32:32.539Z,996.9
2016-09-03T01:32:56.699Z,996.8
2016-09-03T01:33:20.811Z,996.8
2016-09-03T01:33:44.960Z,996.8
2016-09-03T01:34:09.089Z,996.8
2016-09-03T01:34:33.210Z,996.8
2016-09-03T01:34:57.332Z,996.8
2016-09-03T01:35:21.446Z,996.8
2016-09-03T01:35:45.574Z,996.8
2016-09-03T01:36:09.704Z,996.8
2016-09-03T01:36:33.845Z,996.8
2016-09-03T01:36:57.973Z,996.8
2016-09-03T01:37:22.095Z,996.8
2016-09-03T01:37:46.239Z,996.8
2016-09-03T01:38:10.382Z,996.8
2016-09-03T01:38:34.539Z,996.8
2016-09-03T01:38:58.658Z,996.8
2016-09-03T01:39:22.790Z,996.8
2016-09-03T01:39:46.925Z,996.8
2016-09-03T01:40:11.041Z,996.8
2016-09-03T01:40:35.171Z,996.8
2016-09-03T01:40:59.304Z,996.8
2016-09-03T01:41:23.422Z,996.8
2016-09-03T01:41:47.589Z,996.8
2016-09-03T01:42:11.715Z,996.8
2016-09-03T01:42:35.841Z,996.8
2016-09-03T01:42:59.977Z,996.8
2016-09-03T01:43:24.107Z,996.8
2016-09-03T01:43:48.236Z,996.8
2016-09-03T01:44:12.371Z,996.8
2016-09-03T01:44:36.533Z,996.8
2016-09-03T01:45:00.678Z,996.8
2016-09-03T01:45:24.807Z,996.8
2016-09-03T01:45:48.939Z,996.8
2016-09-03T01:46:13.062Z,996.7
2016-09-03T01:46:37.201Z,996.8
2016-09-03T01:47:01.325Z,996.8
2016-09-03T01:47:25.444Z,996.7
2016-09-03T01:47:49.593Z,996.7
2016-09-03T01:48:13.728Z,996.8
2016-09-03T01:48:37.852Z,996.8
2016-09-03T01:49:01.990Z,996.8
2016-09-03T01:49:26.131Z,996.7
2016-09-03T01:49:50.270Z,996.8
2016-09-03T01:50:14.391Z,996.7
2016-09-03T01:50:38.504Z,996.7
2016-09-03T01:51:02.632Z,996.7
2016-09-03T01:51:26.737Z,996.8
2016-09-03T01:51:50.867Z,996.7
2016-09-03T01:52:15.014Z,996.8
2016-09-03T01:52:39.137Z,996.8
2016-09-03T01:53:03.261Z,996.8
2016-09-03T01:53:27.974Z,996.8
2016-09-03T01:53:52.136Z,996.8
2016-09-03T01:54:16.270Z,996.8
2016-09-03T01:54:40.405Z,996.8
2016-09-03T01:55:04.528Z,996.8
2016-09-03T01:55:28.645Z,996.8
2016-09-03T01:55:52.761Z,996.8
2016-09-03T01:56:16.869Z,996.8
2016-09-03T01:56:40.994Z,996.8
2016-09-03T01:57:05.125Z,996.8
2016-09-03T01:57:29.248Z,996.8
2016-09-03T01:57:53.379Z,996.8
2016-09-03T01:58:17.517Z,996.8
2016-09-03T01:58:41.633Z,996.8
2016-09-03T01:59:05.758Z,996.8
2016-09-03T01:59:29.890Z,996.8
2016-09-03T01:59:53.995Z,996.8
2016-09-03T02:00:18.122Z,996.8
2016-09-03T02:00:42.228Z,996.8
2016-09-03T02:01:06.356Z,996.8
2016-09-03T02:01:30.469Z,996.8
2016-09-03T02:01:54.612Z,996.8
2016-09-03T02:02:18.718Z,996.8
2016-09-03T02:02:42.833Z,996.8
2016-09-03T02:03:06.964Z,996.8
2016-09-03T02:03:31.098Z,996.8
2016-09-03T02:03:55.249Z,996.7
2016-09-03T02:04:19.380Z,996.8
2016-09-03T02:04:43.510Z,996.8
2016-09-03T02:05:07.665Z,996.7
2016-09-03T02:05:31.780Z,996.8
2016-09-03T02:05:55.943Z,996.8
2016-09-03T02:06:20.093Z,996.8
2016-09-03T02:06:44.219Z,996.8
2016-09-03T02:07:08.376Z,996.8
2016-09-03T02:07:32.514Z,996.8
2016-09-03T02:07:56.655Z,996.7
2016-09-03T02:08:20.795Z,996.8
2016-09-03T02:08:44.936Z,996.8
2016-09-03T02:09:09.090Z,996.8
2016-09-03T02:09:33.223Z,996.7
2016-09-03T02:09:57.388Z,996.7
2016-09-03T02:10:21.501Z,996.7
2016-09-03T02:10:45.661Z,996.7
2016-09-03T02:11:09.779Z,996.7
2016-09-03T02:11:33.921Z,996.7
2016-09-03T02:11:58.063Z,996.7
2016-09-03T02:12:22.199Z,996.7
2016-09-03T02:12:46.358Z,996.7
2016-09-03T02:13:10.544Z,996.7
2016-09-03T02:13:34.678Z,996.7
2016-09-03T02:13:58.833Z,996.7
2016-09-03T02:14:22.972Z,996.7
2016-09-03T02:14:47.127Z,996.7
2016-09-03T02:15:11.231Z,996.7
2016-09-03T02:15:35.342Z,996.7
2016-09-03T02:15:59.449Z,996.7
2016-09-03T02:16:23.581Z,996.7
2016-09-03T02:16:47.689Z,996.8
2016-09-03T02:17:11.826Z,996.8
2016-09-03T02:17:35.948Z,996.7
2016-09-03T02:18:00.058Z,996.8
2016-09-03T02:18:24.181Z,996.8
2016-09-03T02:18:48.292Z,996.8
2016-09-03T02:19:12.457Z,996.8
2016-09-03T02:19:36.586Z,996.8
2016-09-03T02:20:00.727Z,996.8
2016-09-03T02:20:24.855Z,996.7
2016-09-03T02:20:48.994Z,996.8
2016-09-03T02:21:13.100Z,996.8
2016-09-03T02:21:37.225Z,996.8
2016-09-03T02:22:01.361Z,996.8
2016-09-03T02:22:25.508Z,996.7
2016-09-03T02:22:49.645Z,996.8
2016-09-03T02:23:13.785Z,996.7
2016-09-03T02:23:37.908Z,996.7
2016-09-03T02:24:02.050Z,996.7
2016-09-03T02:24:26.166Z,996.7
2016-09-03T02:24:50.308Z,996.7
2016-09-03T02:25:14.447Z,996.7
2016-09-03T02:25:38.591Z,996.7
2016-09-03T02:26:02.719Z,996.7
2016-09-03T02:26:26.877Z,996.7
2016-09-03T02:26:51.017Z,996.7
2016-09-03T02:27:15.159Z,996.7
2016-09-03T02:27:39.276Z,996.7
2016-09-03T02:28:03.400Z,996.7
2016-09-03T02:28:27.548Z,996.7
2016-09-03T02:28:51.678Z,996.7
2016-09-03T02:29:15.809Z,996.7
2016-09-03T02:29:39.927Z,996.7
2016-09-03T02:30:04.069Z,996.7
2016-09-03T02:30:28.197Z,996.7
2016-09-03T02:30:52.330Z,996.7
2016-09-03T02:31:16.454Z,996.6
2016-09-03T02:31:40.586Z,996.7
2016-09-03T02:32:04.704Z,996.7
2016-09-03T02:32:28.830Z,996.6
2016-09-03T02:32:52.994Z,996.6
2016-09-03T02:33:17.147Z,996.6
2016-09-03T02:33:41.273Z,996.6
2016-09-03T02:34:05.413Z,996.6
2016-09-03T02:34:29.578Z,996.6
2016-09-03T02:34:53.737Z,996.6
2016-09-03T02:35:17.906Z,996.6
2016-09-03T02:35:42.047Z,996.6
2016-09-03T02:36:06.186Z,996.6
2016-09-03T02:36:30.325Z,996.6
2016-09-03T02:36:54.453Z,996.6
2016-09-03T02:37:18.609Z,996.6
2016-09-03T02:37:42.767Z,996.6
2016-09-03T02:38:06.881Z,996.6
2016-09-03T02:38:31.009Z,996.6
2016-09-03T02:38:55.175Z,996.6
2016-09-03T02:39:19.331Z,996.6
2016-09-03T02:39:43.482Z,996.6
2016-09-03T02:40:07.641Z,996.6
2016-09-03T02:40:31.775Z,996.6
2016-09-03T02:40:55.899Z,996.6
2016-09-03T02:41:20.013Z,996.6
2016-09-03T02:41:44.131Z,996.6
2016-09-03T02:42:08.260Z,996.6
2016-09-03T02:42:32.377Z,996.6
2016-09-03T02:42:56.491Z,996.6
2016-09-03T02:43:20.639Z,996.6
2016-09-03T02:43:44.752Z,996.6
2016-09-03T02:44:08.874Z,996.6
2016-09-03T02:44:33.018Z,996.6
2016-09-03T02:44:57.147Z,996.6
2016-09-03T02:45:21.269Z,996.6
2016-09-03T02:45:45.423Z,996.7
2016-09-03T02:46:09.517Z,996.6
2016-09-03T02:46:33.654Z,996.6
2016-09-03T02:46:57.780Z,996.6
2016-09-03T02:47:21.894Z,996.7
2016-09-03T02:47:46.024Z,996.7
2016-09-03T02:48:10.154Z,996.7
2016-09-03T02:48:34.282Z,996.7
2016-09-03T02:48:58.392Z,996.7
2016-09-03T02:49:22.507Z,996.7
2016-09-03T02:49:46.634Z,996.7
2016-09-03T02:50:10.749Z,996.7
2016-09-03T02:50:34.879Z,996.7
2016-09-03T02:50:59.015Z,996.7
2016-09-03T02:51:23.162Z,996.7
2016-09-03T02:51:47.304Z,996.7
2016-09-03T02:52:11.431Z,996.7
2016-09-03T02:52:35.573Z,996.7
2016-09-03T02:52:59.719Z,996.7
2016-09-03T02:53:23.874Z,996.7
2016-09-03T02:53:48.022Z,996.7
2016-09-03T02:54:12.149Z,996.7
2016-09-03T02:54:36.285Z,996.7
2016-09-03T02:55:00.433Z,996.7
2016-09-03T02:55:24.545Z,996.7
2016-09-03T02:55:48.691Z,996.7
2016-09-03T02:56:12.833Z,996.7
2016-09-03T02:56:36.991Z,996.7
2016-09-03T02:57:01.116Z,996.7
2016-09-03T02:57:25.259Z,996.7
2016-09-03T02:57:49.379Z,996.7
2016-09-03T02:58:13.500Z,996.7
2016-09-03T02:58:37.625Z,996.7
2016-09-03T02:59:01.741Z,996.7
2016-09-03T02:59:25.888Z,996.7
2016-09-03T02:59:50.003Z,996.7
2016-09-03T03:00:14.115Z,996.7
2016-09-03T03:00:38.267Z,996.7
2016-09-03T03:01:02.404Z,996.7
2016-09-03T03:01:26.548Z,996.7
2016-09-03T03:01:50.684Z,996.6
2016-09-03T03:02:14.840Z,996.7
2016-09-03T03:02:38.976Z,996.7
2016-09-03T03:03:03.109Z,996.7
2016-09-03T03:03:27.245Z,996.7
2016-09-03T03:03:51.380Z,996.7
2016-09-03T03:04:15.489Z,996.7
2016-09-03T03:04:39.600Z,996.7
2016-09-03T03:05:03.758Z,996.7
2016-09-03T03:05:27.890Z,996.7
2016-09-03T03:05:52.035Z,996.7
2016-09-03T03:06:16.180Z,996.7
2016-09-03T03:06:40.312Z,996.7
2016-09-03T03:07:04.434Z,996.7
2016-09-03T03:07:28.560Z,996.7
2016-09-03T03:07:52.698Z,996.7
2016-09-03T03:08:16.830Z,996.7
2016-09-03T03:08:40.964Z,996.7
2016-09-03T03:09:05.124Z,996.7
2016-09-03T03:09:29.259Z,996.7
2016-09-03T03:09:53.393Z,996.7
2016-09-03T03:10:17.510Z,996.7
2016-09-03T03:10:41.648Z,996.7
2016-09-03T03:11:05.798Z,996.7
2016-09-03T03:11:29.930Z,996.7
2016-09-03T03:11:54.070Z,996.8
2016-09-03T03:12:18.205Z,996.7
2016-09-03T03:12:42.310Z,996.8
2016-09-03T03:13:06.443Z,996.7
2016-09-03T03:13:30.567Z,996.8
2016-09-03T03:13:54.732Z,996.8
2016-09-03T03:14:18.869Z,996.8
2016-09-03T03:14:43.008Z,996.8
2016-09-03T03:15:07.163Z,996.8
2016-09-03T03:15:31.283Z,996.8
2016-09-03T03:15:55.416Z,996.7
2016-09-03T03:16:19.546Z,996.8
2016-09-03T03:16:43.676Z,996.8
2016-09-03T03:17:07.816Z,996.8
2016-09-03T03:17:31.941Z,996.8
2016-09-03T03:17:56.090Z,996.8
2016-09-03T03:18:20.204Z,996.8
2016-09-03T03:18:44.327Z,996.8
2016-09-03T03:19:08.453Z,996.8
2016-09-03T03:19:32.574Z,996.9
2016-09-03T03:19:56.706Z,996.9
2016-09-03T03:20:20.854Z,996.9
2016-09-03T03:20:44.987Z,996.9
2016-09-03T03:21:09.109Z,996.9
2016-09-03T03:21:33.231Z,996.9
2016-09-03T03:21:57.367Z,996.9
2016-09-03T03:22:21.488Z,996.9
2016-09-03T03:22:45.618Z,996.9
2016-09-03T03:23:09.754Z,996.9
2016-09-03T03:23:33.897Z,996.9
2016-09-03T03:23:58.011Z,996.9
2016-09-03T03:24:22.130Z,996.8
2016-09-03T03:24:46.242Z,996.9
2016-09-03T03:25:10.364Z,996.9
2016-09-03T03:25:34.496Z,996.9
2016-09-03T03:25:58.637Z,996.9
2016-09-03T03:26:22.768Z,996.8
2016-09-03T03:26:46.910Z,996.9
2016-09-03T03:27:11.057Z,996.8
2016-09-03T03:27:35.175Z,996.8
2016-09-03T03:27:59.309Z,996.8
2016-09-03T03:28:23.462Z,996.8
2016-09-03T03:28:47.582Z,996.8
2016-09-03T03:29:11.712Z,996.8
2016-09-03T03:29:35.837Z,996.8
2016-09-03T03:29:59.965Z,996.8
2016-09-03T03:30:24.089Z,996.8
2016-09-03T03:30:48.224Z,996.8
2016-09-03T03:31:12.374Z,996.9
2016-09-03T03:31:36.508Z,996.8
2016-09-03T03:32:00.610Z,996.9
2016-09-03T03:32:24.733Z,996.8
2016-09-03T03:32:48.854Z,996.8
2016-09-03T03:33:12.991Z,996.8
2016-09-03T03:33:37.121Z,996.8
2016-09-03T03:34:01.250Z,996.8
2016-09-03T03:34:25.400Z,996.8
2016-09-03T03:34:49.541Z,996.8
2016-09-03T03:35:13.649Z,996.8
2016-09-03T03:35:37.777Z,996.8
2016-09-03T03:36:01.930Z,996.8
2016-09-03T03:36:26.079Z,996.8
2016-09-03T03:36:50.206Z,996.8
2016-09-03T03:37:14.333Z,996.8
2016-09-03T03:37:38.463Z,996.8
2016-09-03T03:38:02.613Z,996.7
2016-09-03T03:38:26.730Z,996.7
2016-09-03T03:38:50.869Z,996.7
2016-09-03T03:39:14.986Z,996.8
2016-09-03T03:39:39.108Z,996.8
2016-09-03T03:40:03.231Z,996.8
2016-09-03T03:40:27.353Z,996.8
2016-09-03T03:40:51.470Z,996.8
2016-09-03T03:41:15.573Z,996.8
2016-09-03T03:41:39.707Z,996.8
2016-09-03T03:42:03.834Z,996.8
2016-09-03T03:42:27.986Z,996.8
2016-09-03T03:42:52.101Z,996.8
2016-09-03T03:43:16.229Z,996.8
2016-09-03T03:43:40.347Z,996.8
2016-09-03T03:44:04.513Z,996.8
2016-09-03T03:44:28.625Z,996.8
2016-09-03T03:44:52.779Z,996.8
2016-09-03T03:45:16.914Z,996.8
2016-09-03T03:45:41.031Z,996.8
2016-09-03T03:46:05.151Z,996.8
2016-09-03T03:46:29.275Z,996.8
2016-09-03T03:46:53.421Z,996.8
2016-09-03T03:47:17.573Z,996.8
2016-09-03T03:47:41.691Z,996.8
2016-09-03T03:48:05.820Z,996.8
2016-09-03T03:48:29.979Z,996.8
2016-09-03T03:48:54.090Z,996.8
2016-09-03T03:49:18.206Z,996.8
2016-09-03T03:49:42.342Z,996.8
2016-09-03T03:50:06.475Z,996.8
2016-09-03T03:50:30.621Z,996.9
2016-09-03T03:50:54.729Z,996.9
2016-09-03T03:51:18.860Z,996.8
2016-09-03T03:51:42.992Z,996.8
2016-09-03T03:52:07.107Z,996.8
2016-09-03T03:52:31.240Z,996.8
2016-09-03T03:52:55.372Z,996.9
2016-09-03T03:53:19.497Z,996.8
2016-09-03T03:53:43.630Z,996.8
2016-09-03T03:54:07.757Z,996.9
2016-09-03T03:54:31.922Z,996.9
2016-09-03T03:54:56.059Z,996.8
2016-09-03T03:55:20.187Z,996.9
2016-09-03T03:55:44.326Z,996.8
2016-09-03T03:56:08.449Z,996.8
2016-09-03T03:56:32.603Z,996.8
2016-09-03T03:56:56.727Z,996.8
2016-09-03T03:57:20.875Z,996.8
2016-09-03T03:57:45.008Z,996.8
2016-09-03T03:58:09.149Z,996.8
2016-09-03T03:58:33.295Z,996.9
2016-09-03T03:58:57.424Z,996.8
2016-09-03T03:59:21.574Z,996.8
2016-09-03T03:59:45.742Z,996.8
2016-09-03T04:00:09.860Z,996.9
2016-09-03T04:00:34.000Z,996.8
2016-09-03T04:00:58.151Z,996.8
2016-09-03T04:01:22.300Z,996.9
2016-09-03T04:01:46.413Z,996.8
2016-09-03T04:02:10.548Z,996.8
2016-09-03T04:02:34.679Z,996.8
2016-09-03T04:02:58.826Z,996.8
2016-09-03T04:03:22.948Z,996.8
2016-09-03T04:03:47.095Z,996.8
2016-09-03T04:04:11.222Z,996.8
2016-09-03T04:04:35.368Z,996.8
2016-09-03T04:04:59.477Z,996.8
2016-09-03T04:05:23.614Z,996.9
2016-09-03T04:05:47.754Z,996.8
2016-09-03T04:06:11.889Z,996.8
2016-09-03T04:06:36.031Z,996.9
2016-09-03T04:07:00.152Z,996.8
2016-09-03T04:07:24.333Z,996.8
2016-09-03T04:07:48.458Z,996.8
2016-09-03T04:08:12.595Z,996.9
2016-09-03T04:08:36.746Z,996.8
2016-09-03T04:09:00.892Z,996.8
2016-09-03T04:09:25.002Z,996.9
2016-09-03T04:09:49.167Z,996.9
2016-09-03T04:10:13.304Z,996.9
2016-09-03T04:10:37.451Z,996.9
2016-09-03T04:11:01.590Z,996.9
2016-09-03T04:11:25.722Z,996.9
2016-09-03T04:11:49.856Z,996.8
2016-09-03T04:12:14.007Z,996.9
2016-09-03T04:12:38.127Z,996.9
2016-09-03T04:13:02.278Z,996.9
2016-09-03T04:13:26.421Z,996.9
2016-09-03T04:13:50.568Z,996.9
2016-09-03T04:14:14.685Z,996.9
2016-09-03T04:14:38.833Z,996.9
2016-09-03T04:15:02.983Z,996.9
2016-09-03T04:15:27.120Z,996.9
2016-09-03T04:15:51.296Z,996.9
2016-09-03T04:16:15.408Z,997
2016-09-03T04:16:39.544Z,997
2016-09-03T04:17:03.665Z,996.9
2016-09-03T04:17:27.803Z,996.9
2016-09-03T04:17:51.924Z,996.9
2016-09-03T04:18:16.076Z,996.9
2016-09-03T04:18:40.200Z,996.9
2016-09-03T04:19:04.307Z,996.9
2016-09-03T04:19:28.475Z,996.9
2016-09-03T04:19:52.618Z,996.9
2016-09-03T04:20:16.777Z,996.9
2016-09-03T04:20:40.913Z,996.9
2016-09-03T04:21:05.052Z,996.9
2016-09-03T04:21:29.206Z,996.9
2016-09-03T04:21:53.316Z,996.9
2016-09-03T04:22:17.461Z,996.9
2016-09-03T04:22:41.610Z,996.9
2016-09-03T04:23:05.754Z,996.9
2016-09-03T04:23:29.900Z,996.9
2016-09-03T04:23:54.049Z,997
2016-09-03T04:24:18.166Z,997
2016-09-03T04:24:42.310Z,996.9
2016-09-03T04:25:06.449Z,997
2016-09-03T04:25:30.568Z,997
2016-09-03T04:25:54.705Z,997
2016-09-03T04:26:18.822Z,997
2016-09-03T04:26:42.966Z,997
2016-09-03T04:27:07.127Z,997
2016-09-03T04:27:31.253Z,997
2016-09-03T04:27:55.380Z,997
2016-09-03T04:28:19.538Z,997
2016-09-03T04:28:44.634Z,997
2016-09-03T04:29:08.762Z,997
2016-09-03T04:29:32.896Z,997
2016-09-03T04:29:57.045Z,997
2016-09-03T04:30:21.181Z,997
2016-09-03T04:30:45.316Z,997
2016-09-03T04:31:09.444Z,997
2016-09-03T04:31:33.589Z,997
2016-09-03T04:31:57.710Z,997
2016-09-03T04:32:21.839Z,997
2016-09-03T04:32:45.982Z,997
2016-09-03T04:33:10.104Z,997
2016-09-03T04:33:34.231Z,997
2016-09-03T04:33:58.363Z,997
2016-09-03T04:34:22.502Z,997
2016-09-03T04:34:46.643Z,997
2016-09-03T04:35:10.792Z,997
2016-09-03T04:35:34.916Z,997
2016-09-03T04:35:59.057Z,997
2016-09-03T04:36:23.224Z,997
2016-09-03T04:36:47.362Z,997
2016-09-03T04:37:11.479Z,997
2016-09-03T04:37:35.638Z,997
2016-09-03T04:37:59.786Z,997
2016-09-03T04:38:23.918Z,997
2016-09-03T04:38:48.040Z,997
2016-09-03T04:39:12.177Z,997
2016-09-03T04:39:36.317Z,996.9
2016-09-03T04:40:00.459Z,997
2016-09-03T04:40:24.587Z,996.9
2016-09-03T04:40:48.736Z,997
2016-09-03T04:41:12.876Z,996.9
2016-09-03T04:41:37.019Z,996.9
2016-09-03T04:42:01.165Z,996.9
2016-09-03T04:42:25.313Z,996.9
2016-09-03T04:42:49.470Z,996.9
2016-09-03T04:43:13.606Z,996.9
2016-09-03T04:43:37.736Z,996.9
2016-09-03T04:44:01.866Z,996.9
2016-09-03T04:44:26.013Z,996.9
2016-09-03T04:44:50.146Z,996.9
2016-09-03T04:45:14.263Z,996.8
2016-09-03T04:45:38.404Z,996.8
2016-09-03T04:46:02.568Z,996.8
2016-09-03T04:46:26.694Z,996.8
2016-09-03T04:46:50.839Z,996.8
2016-09-03T04:47:15.004Z,996.8
2016-09-03T04:47:39.160Z,996.8
2016-09-03T04:48:03.275Z,996.8
2016-09-03T04:48:27.398Z,996.8
2016-09-03T04:48:51.542Z,996.8
2016-09-03T04:49:15.672Z,996.8
2016-09-03T04:49:39.790Z,996.8
2016-09-03T04:50:03.925Z,996.8
2016-09-03T04:50:28.082Z,996.9
2016-09-03T04:50:52.216Z,996.8
2016-09-03T04:51:16.345Z,996.8
2016-09-03T04:51:40.488Z,996.9
2016-09-03T04:52:04.635Z,996.8
2016-09-03T04:52:28.783Z,996.8
2016-09-03T04:52:52.903Z,996.8
2016-09-03T04:53:17.052Z,996.8
2016-09-03T04:53:41.201Z,996.9
2016-09-03T04:54:05.359Z,996.8
2016-09-03T04:54:29.488Z,996.9
2016-09-03T04:54:53.620Z,996.9
2016-09-03T04:55:17.771Z,996.8
2016-09-03T04:55:41.917Z,996.9
2016-09-03T04:56:06.035Z,996.8
2016-09-03T04:56:30.192Z,996.9
2016-09-03T04:56:54.348Z,996.9
2016-09-03T04:57:18.484Z,996.9
2016-09-03T04:57:42.598Z,996.9
2016-09-03T04:58:06.753Z,996.9
2016-09-03T04:58:30.896Z,996.9
2016-09-03T04:58:55.009Z,996.9
2016-09-03T04:59:19.142Z,996.9
2016-09-03T04:59:43.280Z,996.9
2016-09-03T05:00:07.410Z,996.8
2016-09-03T05:00:31.542Z,996.8
2016-09-03T05:00:55.682Z,996.8
2016-09-03T05:01:19.823Z,996.8
2016-09-03T05:01:43.982Z,996.8
2016-09-03T05:02:08.091Z,996.8
2016-09-03T05:02:32.228Z,996.8
2016-09-03T05:02:56.380Z,996.8
2016-09-03T05:03:20.521Z,996.8
2016-09-03T05:03:44.664Z,996.8
2016-09-03T05:04:08.796Z,996.7
2016-09-03T05:04:32.941Z,996.8
2016-09-03T05:04:57.110Z,996.7
2016-09-03T05:05:21.210Z,996.8
2016-09-03T05:05:45.354Z,996.8
2016-09-03T05:06:09.511Z,996.7
2016-09-03T05:06:33.663Z,996.8
2016-09-03T05:06:57.773Z,996.7
2016-09-03T05:07:21.913Z,996.8
2016-09-03T05:07:46.054Z,996.8
2016-09-03T05:08:10.210Z,996.8
2016-09-03T05:08:34.336Z,996.8
2016-09-03T05:08:58.453Z,996.8
2016-09-03T05:09:22.580Z,996.8
2016-09-03T05:09:46.704Z,996.7
2016-09-03T05:10:10.816Z,996.8
2016-09-03T05:10:34.945Z,996.8
2016-09-03T05:10:59.082Z,996.8
2016-09-03T05:11:23.204Z,996.8
2016-09-03T05:11:47.332Z,996.8
2016-09-03T05:12:11.448Z,996.8
2016-09-03T05:12:35.552Z,996.8